sensor_id;sensor_type;location;lat;lon;timestamp;P1;durP1;ratioP1;P2;durP2;ratioP2
21550;SDS011;10936;49.836;7.078;2022-11-20T07:01:24;1.60;;;1.47;;
21550;SDS011;10936;49.836;7.078;2022-11-20T07:03:50;2.53;;;1.80;;
21550;SDS011;10936;49.836;7.078;2022-11-20T07:06:18;2.67;;;2.10;;
21550;SDS011;10936;49.836;7.078;2022-11-20T07:08:44;3.00;;;2.07;;
21550;SDS011;10936;49.836;7.078;2022-11-20T07:11:12;2.03;;;1.83;;
21550;SDS011;10936;49.836;7.078;2022-11-20T07:13:38;2.33;;;1.73;;
21550;SDS011;10936;49.836;7.078;2022-11-20T07:16:04;4.03;;;2.87;;
21550;SDS011;10936;49.836;7.078;2022-11-20T07:18:32;1.80;;;1.67;;
21550;SDS011;10936;49.836;7.078;2022-11-20T07:21:04;2.07;;;1.80;;
21550;SDS011;10936;49.836;7.078;2022-11-20T07:23:32;1.90;;;1.70;;
21550;SDS011;10936;49.836;7.078;2022-11-20T07:25:57;2.00;;;1.80;;
21550;SDS011;10936;49.836;7.078;2022-11-20T07:28:27;3.20;;;2.27;;
21550;SDS011;10936;49.836;7.078;2022-11-20T07:30:52;2.77;;;2.37;;
21550;SDS011;10936;49.836;7.078;2022-11-20T07:33:19;2.30;;;2.10;;
21550;SDS011;10936;49.836;7.078;2022-11-20T07:35:45;2.30;;;2.10;;
21550;SDS011;10936;49.836;7.078;2022-11-20T07:38:10;4.67;;;2.57;;
21550;SDS011;10936;49.836;7.078;2022-11-20T07:40:36;3.17;;;2.50;;
21550;SDS011;10936;49.836;7.078;2022-11-20T07:43:01;2.50;;;2.23;;
21550;SDS011;10936;49.836;7.078;2022-11-20T07:45:27;3.10;;;2.70;;
21550;SDS011;10936;49.836;7.078;2022-11-20T07:47:52;2.67;;;2.10;;
21550;SDS011;10936;49.836;7.078;2022-11-20T07:50:18;3.00;;;2.20;;
21550;SDS011;10936;49.836;7.078;2022-11-20T07:52:45;2.50;;;2.30;;
21550;SDS011;10936;49.836;7.078;2022-11-20T07:55:11;2.83;;;2.50;;
21550;SDS011;10936;49.836;7.078;2022-11-20T07:57:37;4.83;;;3.00;;
21550;SDS011;10936;49.836;7.078;2022-11-20T08:00:03;4.00;;;2.30;;
21550;SDS011;10936;49.836;7.078;2022-11-20T08:02:30;2.87;;;2.50;;
21550;SDS011;10936;49.836;7.078;2022-11-20T08:04:56;3.70;;;2.50;;
21550;SDS011;10936;49.836;7.078;2022-11-20T08:07:21;3.17;;;2.10;;
21550;SDS011;10936;49.836;7.078;2022-11-20T08:09:47;3.73;;;2.47;;
21550;SDS011;10936;49.836;7.078;2022-11-20T08:12:19;2.60;;;2.13;;
21550;SDS011;10936;49.836;7.078;2022-11-20T08:15:05;5.97;;;2.57;;
21550;SDS011;10936;49.836;7.078;2022-11-20T08:17:31;3.90;;;3.10;;
21550;SDS011;10936;49.836;7.078;2022-11-20T08:19:57;3.47;;;2.60;;
21550;SDS011;10936;49.836;7.078;2022-11-20T08:22:22;3.13;;;2.50;;
21550;SDS011;10936;49.836;7.078;2022-11-20T08:24:48;2.77;;;2.47;;
21550;SDS011;10936;49.836;7.078;2022-11-20T08:27:14;3.70;;;3.10;;
21550;SDS011;10936;49.836;7.078;2022-11-20T08:29:39;3.33;;;3.00;;
21550;SDS011;10936;49.836;7.078;2022-11-20T08:32:05;4.40;;;3.10;;
21550;SDS011;10936;49.836;7.078;2022-11-20T08:34:30;4.17;;;2.80;;
21550;SDS011;10936;49.836;7.078;2022-11-20T08:36:56;2.97;;;2.40;;
21550;SDS011;10936;49.836;7.078;2022-11-20T08:39:21;2.50;;;2.30;;
21550;SDS011;10936;49.836;7.078;2022-11-20T08:41:47;3.40;;;2.70;;
21550;SDS011;10936;49.836;7.078;2022-11-20T08:44:12;3.30;;;2.47;;
21550;SDS011;10936;49.836;7.078;2022-11-20T08:46:39;3.80;;;2.90;;
21550;SDS011;10936;49.836;7.078;2022-11-20T08:49:06;2.90;;;2.43;;
21550;SDS011;10936;49.836;7.078;2022-11-20T08:51:33;3.30;;;2.40;;
21550;SDS011;10936;49.836;7.078;2022-11-20T08:53:59;2.97;;;2.67;;
21550;SDS011;10936;49.836;7.078;2022-11-20T08:56:25;2.20;;;2.00;;
21550;SDS011;10936;49.836;7.078;2022-11-20T08:58:51;2.87;;;2.57;;
21550;SDS011;10936;49.836;7.078;2022-11-20T09:01:17;3.70;;;2.30;;
21550;SDS011;10936;49.836;7.078;2022-11-20T09:03:43;2.70;;;2.20;;
21550;SDS011;10936;49.836;7.078;2022-11-20T09:06:09;2.20;;;2.00;;
21550;SDS011;10936;49.836;7.078;2022-11-20T09:08:35;2.50;;;2.23;;
21550;SDS011;10936;49.836;7.078;2022-11-20T09:11:03;2.10;;;1.90;;
21550;SDS011;10936;49.836;7.078;2022-11-20T09:13:29;2.23;;;2.03;;
21550;SDS011;10936;49.836;7.078;2022-11-20T09:15:57;3.50;;;2.10;;
21550;SDS011;10936;49.836;7.078;2022-11-20T09:18:25;2.40;;;1.90;;
21550;SDS011;10936;49.836;7.078;2022-11-20T09:20:55;2.00;;;1.80;;
21550;SDS011;10936;49.836;7.078;2022-11-20T09:23:22;2.20;;;2.00;;
21550;SDS011;10936;49.836;7.078;2022-11-20T09:25:47;1.70;;;1.50;;
21550;SDS011;10936;49.836;7.078;2022-11-20T09:28:13;1.80;;;1.53;;
21550;SDS011;10936;49.836;7.078;2022-11-20T09:30:38;2.53;;;2.00;;
21550;SDS011;10936;49.836;7.078;2022-11-20T09:33:05;2.87;;;1.93;;
21550;SDS011;10936;49.836;7.078;2022-11-20T09:35:31;2.13;;;1.73;;
21550;SDS011;10936;49.836;7.078;2022-11-20T09:37:57;2.57;;;1.40;;
21550;SDS011;10936;49.836;7.078;2022-11-20T09:40:26;1.70;;;1.60;;
21550;SDS011;10936;49.836;7.078;2022-11-20T09:46:02;2.40;;;1.87;;
21550;SDS011;10936;49.836;7.078;2022-11-20T09:54:10;2.03;;;1.77;;
21550;SDS011;10936;49.836;7.078;2022-11-20T09:56:42;1.70;;;1.60;;
21550;SDS011;10936;49.836;7.078;2022-11-20T09:59:23;2.30;;;1.60;;
21550;SDS011;10936;49.836;7.078;2022-11-20T10:01:59;2.57;;;2.00;;
21550;SDS011;10936;49.836;7.078;2022-11-20T10:04:25;2.70;;;1.70;;
21550;SDS011;10936;49.836;7.078;2022-11-20T10:12:05;2.17;;;1.80;;
21550;SDS011;10936;49.836;7.078;2022-11-20T10:14:46;1.57;;;1.30;;
21550;SDS011;10936;49.836;7.078;2022-11-20T10:23:12;3.47;;;1.40;;
21550;SDS011;10936;49.836;7.078;2022-11-20T10:26:13;3.53;;;1.57;;
21550;SDS011;10936;49.836;7.078;2022-11-20T10:29:17;3.47;;;1.20;;
21550;SDS011;10936;49.836;7.078;2022-11-20T10:31:49;2.00;;;1.60;;
21550;SDS011;10936;49.836;7.078;2022-11-20T10:37:26;2.73;;;1.13;;
21550;SDS011;10936;49.836;7.078;2022-11-20T10:40:00;2.90;;;1.30;;
21550;SDS011;10936;49.836;7.078;2022-11-20T10:42:31;3.07;;;1.03;;
21550;SDS011;10936;49.836;7.078;2022-11-20T10:47:55;2.30;;;1.47;;
21550;SDS011;10936;49.836;7.078;2022-11-20T10:50:34;2.23;;;1.30;;
21550;SDS011;10936;49.836;7.078;2022-11-20T10:53:08;4.17;;;1.60;;
21550;SDS011;10936;49.836;7.078;2022-11-20T10:55:40;1.70;;;1.20;;
21550;SDS011;10936;49.836;7.078;2022-11-20T10:58:22;3.50;;;1.17;;
21550;SDS011;10936;49.836;7.078;2022-11-20T11:01:27;3.17;;;1.50;;
21550;SDS011;10936;49.836;7.078;2022-11-20T11:03:52;3.07;;;1.37;;
21550;SDS011;10936;49.836;7.078;2022-11-20T11:06:29;1.10;;;0.93;;
21550;SDS011;10936;49.836;7.078;2022-11-20T11:09:10;2.13;;;1.40;;
21550;SDS011;10936;49.836;7.078;2022-11-20T11:11:40;2.50;;;1.30;;
21550;SDS011;10936;49.836;7.078;2022-11-20T11:14:07;1.70;;;1.10;;
21550;SDS011;10936;49.836;7.078;2022-11-20T11:16:35;6.67;;;1.43;;
21550;SDS011;10936;49.836;7.078;2022-11-20T11:19:11;7.40;;;1.17;;
21550;SDS011;10936;49.836;7.078;2022-11-20T11:21:38;2.97;;;1.40;;
21550;SDS011;10936;49.836;7.078;2022-11-20T11:24:18;2.17;;;1.10;;
21550;SDS011;10936;49.836;7.078;2022-11-20T11:26:51;1.77;;;1.10;;
21550;SDS011;10936;49.836;7.078;2022-11-20T11:29:22;2.03;;;1.20;;
21550;SDS011;10936;49.836;7.078;2022-11-20T11:31:51;1.90;;;1.40;;
21550;SDS011;10936;49.836;7.078;2022-11-20T11:34:32;2.23;;;1.10;;
21550;SDS011;10936;49.836;7.078;2022-11-20T11:36:58;1.87;;;1.30;;
21550;SDS011;10936;49.836;7.078;2022-11-20T11:39:26;2.70;;;1.00;;
21550;SDS011;10936;49.836;7.078;2022-11-20T11:41:53;2.03;;;0.90;;
21550;SDS011;10936;49.836;7.078;2022-11-20T11:44:20;3.17;;;1.27;;
21550;SDS011;10936;49.836;7.078;2022-11-20T11:47:13;4.80;;;1.17;;
21550;SDS011;10936;49.836;7.078;2022-11-20T11:49:46;2.37;;;1.10;;
21550;SDS011;10936;49.836;7.078;2022-11-20T11:52:15;2.37;;;1.10;;
21550;SDS011;10936;49.836;7.078;2022-11-20T11:54:49;2.30;;;1.17;;
21550;SDS011;10936;49.836;7.078;2022-11-20T12:00:15;4.07;;;1.27;;
21550;SDS011;10936;49.836;7.078;2022-11-20T12:05:19;4.63;;;1.27;;
21550;SDS011;10936;49.836;7.078;2022-11-20T12:08:15;2.70;;;1.50;;
21550;SDS011;10936;49.836;7.078;2022-11-20T12:11:04;1.87;;;1.00;;
21550;SDS011;10936;49.836;7.078;2022-11-20T12:14:07;4.60;;;1.20;;
21550;SDS011;10936;49.836;7.078;2022-11-20T12:16:49;1.53;;;1.10;;
21550;SDS011;10936;49.836;7.078;2022-11-20T12:19:15;1.20;;;1.00;;
21550;SDS011;10936;49.836;7.078;2022-11-20T12:27:16;2.40;;;1.10;;
21550;SDS011;10936;49.836;7.078;2022-11-20T12:30:04;5.23;;;1.00;;
21550;SDS011;10936;49.836;7.078;2022-11-20T12:44:17;2.17;;;1.03;;
21550;SDS011;10936;49.836;7.078;2022-11-20T12:47:24;4.77;;;0.97;;
21550;SDS011;10936;49.836;7.078;2022-11-20T12:50:18;2.37;;;1.10;;
21550;SDS011;10936;49.836;7.078;2022-11-20T12:55:47;3.30;;;0.90;;
21550;SDS011;10936;49.836;7.078;2022-11-20T12:58:38;2.57;;;0.83;;
21550;SDS011;10936;49.836;7.078;2022-11-20T13:07:03;2.53;;;0.93;;
21550;SDS011;10936;49.836;7.078;2022-11-20T13:09:32;1.97;;;0.87;;
21550;SDS011;10936;49.836;7.078;2022-11-20T13:14:37;2.50;;;1.10;;
21550;SDS011;10936;49.836;7.078;2022-11-20T13:19:47;3.17;;;0.90;;
21550;SDS011;10936;49.836;7.078;2022-11-20T13:22:23;2.40;;;1.00;;
21550;SDS011;10936;49.836;7.078;2022-11-20T13:25:10;1.50;;;0.80;;
21550;SDS011;10936;49.836;7.078;2022-11-20T13:27:57;1.43;;;0.80;;
21550;SDS011;10936;49.836;7.078;2022-11-20T13:30:27;1.50;;;0.73;;
21550;SDS011;10936;49.836;7.078;2022-11-20T13:36:03;1.03;;;0.70;;
21550;SDS011;10936;49.836;7.078;2022-11-20T13:38:19;2.47;;;1.00;;
21550;SDS011;10936;49.836;7.078;2022-11-20T13:40:55;0.93;;;0.80;;
21550;SDS011;10936;49.836;7.078;2022-11-20T13:45:56;1.70;;;1.20;;
21550;SDS011;10936;49.836;7.078;2022-11-20T13:48:29;8.77;;;1.83;;
21550;SDS011;10936;49.836;7.078;2022-11-20T13:53:38;0.60;;;0.60;;
21550;SDS011;10936;49.836;7.078;2022-11-20T13:58:49;1.73;;;0.87;;
21550;SDS011;10936;49.836;7.078;2022-11-20T14:01:35;1.77;;;0.90;;
21550;SDS011;10936;49.836;7.078;2022-11-20T14:04:07;1.20;;;0.70;;
21550;SDS011;10936;49.836;7.078;2022-11-20T14:06:38;1.03;;;0.80;;
21550;SDS011;10936;49.836;7.078;2022-11-20T14:09:12;1.00;;;0.90;;
21550;SDS011;10936;49.836;7.078;2022-11-20T14:11:49;1.57;;;0.90;;
21550;SDS011;10936;49.836;7.078;2022-11-20T14:14:16;2.97;;;0.90;;
21550;SDS011;10936;49.836;7.078;2022-11-20T14:16:43;1.73;;;0.90;;
21550;SDS011;10936;49.836;7.078;2022-11-20T14:21:45;4.03;;;0.87;;
21550;SDS011;10936;49.836;7.078;2022-11-20T14:24:12;2.77;;;0.90;;
21550;SDS011;10936;49.836;7.078;2022-11-20T14:26:42;3.00;;;0.70;;
21550;SDS011;10936;49.836;7.078;2022-11-20T14:29:15;1.63;;;0.70;;
21550;SDS011;10936;49.836;7.078;2022-11-20T14:31:47;1.43;;;0.80;;
21550;SDS011;10936;49.836;7.078;2022-11-20T14:34:17;2.43;;;0.80;;
21550;SDS011;10936;49.836;7.078;2022-11-20T14:36:45;0.90;;;0.60;;
21550;SDS011;10936;49.836;7.078;2022-11-20T14:39:12;1.02;;;0.60;;
21550;SDS011;10936;49.836;7.078;2022-11-20T14:41:52;0.93;;;0.70;;
21550;SDS011;10936;49.836;7.078;2022-11-20T14:44:23;2.30;;;0.70;;
21550;SDS011;10936;49.836;7.078;2022-11-20T14:46:52;0.77;;;0.77;;
21550;SDS011;10936;49.836;7.078;2022-11-20T14:49:20;2.07;;;0.80;;
21550;SDS011;10936;49.836;7.078;2022-11-20T14:51:46;2.28;;;0.80;;
21550;SDS011;10936;49.836;7.078;2022-11-20T14:54:12;1.00;;;0.80;;
21550;SDS011;10936;49.836;7.078;2022-11-20T14:56:40;1.00;;;0.60;;
21550;SDS011;10936;49.836;7.078;2022-11-20T14:59:07;0.93;;;0.70;;
21550;SDS011;10936;49.836;7.078;2022-11-20T15:01:34;1.07;;;0.70;;
21550;SDS011;10936;49.836;7.078;2022-11-20T15:04:00;1.33;;;0.60;;
21550;SDS011;10936;49.836;7.078;2022-11-20T15:06:30;2.03;;;1.23;;
21550;SDS011;10936;49.836;7.078;2022-11-20T15:08:56;1.20;;;0.77;;
21550;SDS011;10936;49.836;7.078;2022-11-20T15:11:27;2.58;;;0.60;;
21550;SDS011;10936;49.836;7.078;2022-11-20T15:13:55;1.13;;;0.73;;
21550;SDS011;10936;49.836;7.078;2022-11-20T15:16:22;0.97;;;0.70;;
21550;SDS011;10936;49.836;7.078;2022-11-20T15:18:49;0.95;;;0.70;;
21550;SDS011;10936;49.836;7.078;2022-11-20T15:21:16;0.77;;;0.60;;
21550;SDS011;10936;49.836;7.078;2022-11-20T15:23:43;1.90;;;0.90;;
21550;SDS011;10936;49.836;7.078;2022-11-20T15:26:10;1.52;;;0.77;;
21550;SDS011;10936;49.836;7.078;2022-11-20T15:28:41;1.93;;;0.70;;
21550;SDS011;10936;49.836;7.078;2022-11-20T15:31:13;0.77;;;0.73;;
21550;SDS011;10936;49.836;7.078;2022-11-20T15:33:40;1.43;;;0.70;;
21550;SDS011;10936;49.836;7.078;2022-11-20T15:36:05;1.00;;;0.70;;
21550;SDS011;10936;49.836;7.078;2022-11-20T15:38:31;2.40;;;0.60;;
21550;SDS011;10936;49.836;7.078;2022-11-20T15:40:57;0.60;;;0.60;;
21550;SDS011;10936;49.836;7.078;2022-11-20T15:43:23;2.27;;;0.70;;
21550;SDS011;10936;49.836;7.078;2022-11-20T15:45:53;1.17;;;0.53;;
21550;SDS011;10936;49.836;7.078;2022-11-20T15:48:22;0.87;;;0.70;;
21550;SDS011;10936;49.836;7.078;2022-11-20T15:50:53;1.10;;;0.60;;
21550;SDS011;10936;49.836;7.078;2022-11-20T15:53:28;0.80;;;0.70;;
21550;SDS011;10936;49.836;7.078;2022-11-20T15:55:54;0.60;;;0.60;;
21550;SDS011;10936;49.836;7.078;2022-11-20T15:58:20;0.63;;;0.63;;
21550;SDS011;10936;49.836;7.078;2022-11-20T16:00:47;0.90;;;0.60;;
21550;SDS011;10936;49.836;7.078;2022-11-20T16:03:13;1.00;;;0.70;;
21550;SDS011;10936;49.836;7.078;2022-11-20T16:05:40;0.77;;;0.70;;
21550;SDS011;10936;49.836;7.078;2022-11-20T16:08:06;0.60;;;0.50;;
21550;SDS011;10936;49.836;7.078;2022-11-20T16:10:31;2.00;;;0.60;;
21550;SDS011;10936;49.836;7.078;2022-11-20T16:12:57;1.00;;;0.55;;
21550;SDS011;10936;49.836;7.078;2022-11-20T16:15:41;0.60;;;0.60;;
21550;SDS011;10936;49.836;7.078;2022-11-20T16:18:16;1.10;;;0.60;;
21550;SDS011;10936;49.836;7.078;2022-11-20T16:20:43;1.40;;;0.97;;
21550;SDS011;10936;49.836;7.078;2022-11-20T16:23:10;0.50;;;0.50;;
21550;SDS011;10936;49.836;7.078;2022-11-20T16:25:36;0.87;;;0.73;;
21550;SDS011;10936;49.836;7.078;2022-11-20T16:28:02;0.50;;;0.50;;
21550;SDS011;10936;49.836;7.078;2022-11-20T16:30:27;0.80;;;0.70;;
21550;SDS011;10936;49.836;7.078;2022-11-20T16:32:53;1.80;;;0.80;;
21550;SDS011;10936;49.836;7.078;2022-11-20T16:35:18;1.10;;;0.57;;
21550;SDS011;10936;49.836;7.078;2022-11-20T16:37:44;0.93;;;0.70;;
21550;SDS011;10936;49.836;7.078;2022-11-20T16:40:10;0.60;;;0.60;;
21550;SDS011;10936;49.836;7.078;2022-11-20T16:42:36;0.63;;;0.60;;
21550;SDS011;10936;49.836;7.078;2022-11-20T16:45:02;0.70;;;0.50;;
21550;SDS011;10936;49.836;7.078;2022-11-20T16:47:32;0.83;;;0.60;;
21550;SDS011;10936;49.836;7.078;2022-11-20T16:50:01;0.90;;;0.53;;
21550;SDS011;10936;49.836;7.078;2022-11-20T16:52:27;0.77;;;0.60;;
21550;SDS011;10936;49.836;7.078;2022-11-20T16:54:54;0.87;;;0.70;;
21550;SDS011;10936;49.836;7.078;2022-11-20T16:57:19;0.50;;;0.50;;
21550;SDS011;10936;49.836;7.078;2022-11-20T16:59:45;1.47;;;0.63;;
21550;SDS011;10936;49.836;7.078;2022-11-20T17:02:11;0.93;;;0.60;;
21550;SDS011;10936;49.836;7.078;2022-11-20T17:04:36;0.63;;;0.57;;
21550;SDS011;10936;49.836;7.078;2022-11-20T17:07:02;0.83;;;0.60;;
21550;SDS011;10936;49.836;7.078;2022-11-20T17:09:27;1.20;;;0.83;;
21550;SDS011;10936;49.836;7.078;2022-11-20T17:11:53;0.87;;;0.60;;
21550;SDS011;10936;49.836;7.078;2022-11-20T17:14:18;0.93;;;0.60;;
21550;SDS011;10936;49.836;7.078;2022-11-20T17:16:44;0.97;;;0.60;;
21550;SDS011;10936;49.836;7.078;2022-11-20T17:19:10;0.70;;;0.60;;
21550;SDS011;10936;49.836;7.078;2022-11-20T17:21:36;0.90;;;0.70;;
21550;SDS011;10936;49.836;7.078;2022-11-20T17:24:04;0.50;;;0.50;;
21550;SDS011;10936;49.836;7.078;2022-11-20T17:26:31;1.00;;;0.63;;
21550;SDS011;10936;49.836;7.078;2022-11-20T17:29:02;3.70;;;1.33;;
21550;SDS011;10936;49.836;7.078;2022-11-20T17:31:30;1.70;;;0.70;;
21550;SDS011;10936;49.836;7.078;2022-11-20T17:33:57;0.83;;;0.67;;
21550;SDS011;10936;49.836;7.078;2022-11-20T17:36:24;0.60;;;0.60;;
21550;SDS011;10936;49.836;7.078;2022-11-20T17:38:50;1.53;;;0.80;;
21550;SDS011;10936;49.836;7.078;2022-11-20T17:41:17;0.93;;;0.57;;
21550;SDS011;10936;49.836;7.078;2022-11-20T17:43:44;0.57;;;0.57;;
21550;SDS011;10936;49.836;7.078;2022-11-20T17:46:14;0.80;;;0.73;;
21550;SDS011;10936;49.836;7.078;2022-11-20T17:48:41;0.60;;;0.60;;
21550;SDS011;10936;49.836;7.078;2022-11-20T17:51:09;0.63;;;0.63;;
21550;SDS011;10936;49.836;7.078;2022-11-20T17:53:37;0.57;;;0.50;;
21550;SDS011;10936;49.836;7.078;2022-11-20T17:56:04;1.10;;;0.60;;
21550;SDS011;10936;49.836;7.078;2022-11-20T17:58:49;0.77;;;0.67;;
21550;SDS011;10936;49.836;7.078;2022-11-20T18:01:14;0.70;;;0.60;;
21550;SDS011;10936;49.836;7.078;2022-11-20T18:03:41;0.90;;;0.53;;
21550;SDS011;10936;49.836;7.078;2022-11-20T18:06:28;0.63;;;0.40;;
21550;SDS011;10936;49.836;7.078;2022-11-20T18:08:53;0.80;;;0.60;;
21550;SDS011;10936;49.836;7.078;2022-11-20T18:11:20;0.93;;;0.67;;
21550;SDS011;10936;49.836;7.078;2022-11-20T18:13:48;0.60;;;0.50;;
21550;SDS011;10936;49.836;7.078;2022-11-20T18:16:34;1.33;;;0.60;;
21550;SDS011;10936;49.836;7.078;2022-11-20T18:19:02;0.97;;;0.53;;
21550;SDS011;10936;49.836;7.078;2022-11-20T18:21:29;0.50;;;0.50;;
21550;SDS011;10936;49.836;7.078;2022-11-20T18:23:56;0.63;;;0.57;;
21550;SDS011;10936;49.836;7.078;2022-11-20T18:26:22;0.73;;;0.50;;
21550;SDS011;10936;49.836;7.078;2022-11-20T18:28:49;0.70;;;0.67;;
21550;SDS011;10936;49.836;7.078;2022-11-20T18:31:15;1.20;;;0.53;;
21550;SDS011;10936;49.836;7.078;2022-11-20T18:33:42;0.40;;;0.40;;
21550;SDS011;10936;49.836;7.078;2022-11-20T18:36:08;0.50;;;0.50;;
21550;SDS011;10936;49.836;7.078;2022-11-20T18:38:39;0.87;;;0.60;;
21550;SDS011;10936;49.836;7.078;2022-11-20T18:41:07;0.70;;;0.50;;
21550;SDS011;10936;49.836;7.078;2022-11-20T18:43:53;1.33;;;0.50;;
21550;SDS011;10936;49.836;7.078;2022-11-20T18:46:37;0.53;;;0.53;;
21550;SDS011;10936;49.836;7.078;2022-11-20T18:49:03;0.50;;;0.50;;
21550;SDS011;10936;49.836;7.078;2022-11-20T18:51:29;0.90;;;0.67;;
21550;SDS011;10936;49.836;7.078;2022-11-20T18:53:54;0.73;;;0.63;;
21550;SDS011;10936;49.836;7.078;2022-11-20T18:56:20;0.40;;;0.40;;
21550;SDS011;10936;49.836;7.078;2022-11-20T18:58:45;2.87;;;0.57;;
21550;SDS011;10936;49.836;7.078;2022-11-20T19:01:11;1.13;;;0.60;;
21550;SDS011;10936;49.836;7.078;2022-11-20T19:03:36;0.50;;;0.47;;
21550;SDS011;10936;49.836;7.078;2022-11-20T19:06:02;0.87;;;0.60;;
21550;SDS011;10936;49.836;7.078;2022-11-20T19:08:28;0.90;;;0.60;;
21550;SDS011;10936;49.836;7.078;2022-11-20T19:10:53;2.03;;;0.50;;
21550;SDS011;10936;49.836;7.078;2022-11-20T19:13:19;0.50;;;0.50;;
21550;SDS011;10936;49.836;7.078;2022-11-20T19:15:44;0.37;;;0.30;;
21550;SDS011;10936;49.836;7.078;2022-11-20T19:18:10;0.67;;;0.50;;
21550;SDS011;10936;49.836;7.078;2022-11-20T19:20:35;0.60;;;0.50;;
21550;SDS011;10936;49.836;7.078;2022-11-20T19:23:01;1.40;;;0.63;;
21550;SDS011;10936;49.836;7.078;2022-11-20T19:25:27;1.30;;;0.60;;
21550;SDS011;10936;49.836;7.078;2022-11-20T19:27:54;0.77;;;0.70;;
21550;SDS011;10936;49.836;7.078;2022-11-20T19:30:20;1.87;;;0.70;;
21550;SDS011;10936;49.836;7.078;2022-11-20T19:32:45;0.70;;;0.60;;
21550;SDS011;10936;49.836;7.078;2022-11-20T19:35:11;1.93;;;0.60;;
21550;SDS011;10936;49.836;7.078;2022-11-20T19:37:37;1.33;;;0.53;;
21550;SDS011;10936;49.836;7.078;2022-11-20T19:40:03;1.60;;;0.60;;
21550;SDS011;10936;49.836;7.078;2022-11-20T19:42:29;6.13;;;1.00;;
21550;SDS011;10936;49.836;7.078;2022-11-20T19:44:55;0.60;;;0.60;;
21550;SDS011;10936;49.836;7.078;2022-11-20T19:47:22;0.97;;;0.70;;
21550;SDS011;10936;49.836;7.078;2022-11-20T19:49:48;0.93;;;0.60;;
21550;SDS011;10936;49.836;7.078;2022-11-20T19:52:13;0.70;;;0.50;;
21550;SDS011;10936;49.836;7.078;2022-11-20T19:54:39;0.60;;;0.50;;
21550;SDS011;10936;49.836;7.078;2022-11-20T19:57:04;1.53;;;0.70;;
21550;SDS011;10936;49.836;7.078;2022-11-20T19:59:30;2.30;;;0.53;;
21550;SDS011;10936;49.836;7.078;2022-11-20T20:01:56;1.13;;;0.67;;
21550;SDS011;10936;49.836;7.078;2022-11-20T20:04:22;2.07;;;0.40;;
21550;SDS011;10936;49.836;7.078;2022-11-20T20:06:47;1.17;;;0.60;;
21550;SDS011;10936;49.836;7.078;2022-11-20T20:09:14;0.67;;;0.60;;
21550;SDS011;10936;49.836;7.078;2022-11-20T20:11:43;2.00;;;0.60;;
21550;SDS011;10936;49.836;7.078;2022-11-20T20:14:09;0.57;;;0.57;;
21550;SDS011;10936;49.836;7.078;2022-11-20T20:16:38;0.40;;;0.40;;
21550;SDS011;10936;49.836;7.078;2022-11-20T20:19:04;1.23;;;0.67;;
21550;SDS011;10936;49.836;7.078;2022-11-20T20:21:30;1.60;;;0.70;;
21550;SDS011;10936;49.836;7.078;2022-11-20T20:23:57;0.40;;;0.40;;
21550;SDS011;10936;49.836;7.078;2022-11-20T20:26:24;0.50;;;0.50;;
21550;SDS011;10936;49.836;7.078;2022-11-20T20:28:52;0.60;;;0.40;;
21550;SDS011;10936;49.836;7.078;2022-11-20T20:31:19;0.60;;;0.50;;
21550;SDS011;10936;49.836;7.078;2022-11-20T20:33:46;0.90;;;0.60;;
21550;SDS011;10936;49.836;7.078;2022-11-20T20:36:13;0.90;;;0.50;;
21550;SDS011;10936;49.836;7.078;2022-11-20T20:38:40;1.23;;;0.63;;
21550;SDS011;10936;49.836;7.078;2022-11-20T20:41:07;1.00;;;0.80;;
21550;SDS011;10936;49.836;7.078;2022-11-20T20:43:33;0.50;;;0.50;;
21550;SDS011;10936;49.836;7.078;2022-11-20T20:46:19;3.07;;;1.57;;
21550;SDS011;10936;49.836;7.078;2022-11-20T20:48:44;2.50;;;0.70;;
21550;SDS011;10936;49.836;7.078;2022-11-20T20:51:10;1.10;;;0.70;;
21550;SDS011;10936;49.836;7.078;2022-11-20T20:53:35;0.80;;;0.57;;
21550;SDS011;10936;49.836;7.078;2022-11-20T20:56:01;0.87;;;0.57;;
21550;SDS011;10936;49.836;7.078;2022-11-20T20:58:28;0.67;;;0.60;;
21550;SDS011;10936;49.836;7.078;2022-11-20T21:00:59;0.60;;;0.57;;
21550;SDS011;10936;49.836;7.078;2022-11-20T21:03:26;1.33;;;0.40;;
21550;SDS011;10936;49.836;7.078;2022-11-20T21:05:55;0.63;;;0.60;;
21550;SDS011;10936;49.836;7.078;2022-11-20T21:08:23;0.80;;;0.63;;
21550;SDS011;10936;49.836;7.078;2022-11-20T21:10:51;1.40;;;0.60;;
21550;SDS011;10936;49.836;7.078;2022-11-20T21:13:18;0.50;;;0.50;;
21550;SDS011;10936;49.836;7.078;2022-11-20T21:15:45;1.10;;;0.40;;
21550;SDS011;10936;49.836;7.078;2022-11-20T21:18:13;0.70;;;0.40;;
21550;SDS011;10936;49.836;7.078;2022-11-20T21:20:43;0.40;;;0.40;;
21550;SDS011;10936;49.836;7.078;2022-11-20T21:23:28;1.67;;;0.63;;
21550;SDS011;10936;49.836;7.078;2022-11-20T21:25:53;0.90;;;0.50;;
21550;SDS011;10936;49.836;7.078;2022-11-20T21:28:19;1.53;;;0.60;;
21550;SDS011;10936;49.836;7.078;2022-11-20T21:30:45;0.30;;;0.30;;
21550;SDS011;10936;49.836;7.078;2022-11-20T21:33:11;0.70;;;0.40;;
21550;SDS011;10936;49.836;7.078;2022-11-20T21:35:36;1.13;;;0.50;;
21550;SDS011;10936;49.836;7.078;2022-11-20T21:38:02;0.93;;;0.60;;
21550;SDS011;10936;49.836;7.078;2022-11-20T21:40:28;0.73;;;0.60;;
21550;SDS011;10936;49.836;7.078;2022-11-20T21:42:53;0.50;;;0.50;;
21550;SDS011;10936;49.836;7.078;2022-11-20T21:45:19;0.70;;;0.50;;
21550;SDS011;10936;49.836;7.078;2022-11-20T21:47:47;0.30;;;0.30;;
21550;SDS011;10936;49.836;7.078;2022-11-20T21:50:14;0.30;;;0.30;;
21550;SDS011;10936;49.836;7.078;2022-11-20T21:52:40;0.90;;;0.50;;
21550;SDS011;10936;49.836;7.078;2022-11-20T21:55:05;0.73;;;0.60;;
21550;SDS011;10936;49.836;7.078;2022-11-20T21:57:32;0.87;;;0.60;;
21550;SDS011;10936;49.836;7.078;2022-11-20T21:59:58;1.13;;;0.63;;
21550;SDS011;10936;49.836;7.078;2022-11-20T22:02:24;0.57;;;0.50;;
21550;SDS011;10936;49.836;7.078;2022-11-20T22:04:49;1.40;;;0.60;;
21550;SDS011;10936;49.836;7.078;2022-11-20T22:07:15;2.30;;;0.63;;
21550;SDS011;10936;49.836;7.078;2022-11-20T22:09:41;0.53;;;0.50;;
21550;SDS011;10936;49.836;7.078;2022-11-20T22:12:06;0.70;;;0.60;;
21550;SDS011;10936;49.836;7.078;2022-11-20T22:14:32;0.93;;;0.70;;
21550;SDS011;10936;49.836;7.078;2022-11-20T22:16:57;0.63;;;0.40;;
21550;SDS011;10936;49.836;7.078;2022-11-20T22:19:23;0.60;;;0.50;;
21550;SDS011;10936;49.836;7.078;2022-11-20T22:21:48;0.63;;;0.63;;
21550;SDS011;10936;49.836;7.078;2022-11-20T22:24:16;0.60;;;0.60;;
21550;SDS011;10936;49.836;7.078;2022-11-20T22:26:43;0.93;;;0.53;;
21550;SDS011;10936;49.836;7.078;2022-11-20T22:29:12;0.80;;;0.57;;
